Morehead City, NC (28557)

6:37 PM EST on February 14, 2016 (GMT -0500)
MoreheadCityWeather.Com | | Change Station
CLOSE
Current Station
Personal Weather Station
Location: Morehead City, NC
Elevation: 10 ft
Nearby Weather Stations

Elev 10 ft 34.73 °N, 76.75 °W | Updated 8 seconds ago

Overcast
Overcast
27.0 °F
Feels Like 17 °F
N
11.7
Wind Variable Wind from ENE
Gusts 15.1 mph

Today
High -- | Low -- °F
--% Chance of Precip.
Yesterday
High -- | Low -- °F
Precip. -- in
Pressure 30.53 in
Visibility 10.0 miles
Clouds Overcast 8000 ft
Windchill 17 °F
Dew Point 13 °F
Humidity 55%
Rainfall 0.00 in
Snow Depth Not available.
6:54 AM 5:48 PM
Waxing Crescent, 46% visible
METAR KMRH 142258Z AUTO 02008KT 10SM OVC080 M03/M12 A3052 RMK AO2 SLP336 T10281122 TSNO $
Pressure 30.53 in
Visibility 10.0 miles
Clouds Overcast 8000 ft
Windchill 17 °F
Dew Point 13 °F
Humidity 55%
Rainfall 0.00 in
Snow Depth Not available.
6:54 AM 5:48 PM
Waxing Crescent, 46% visible
METAR KMRH 142258Z AUTO 02008KT 10SM OVC080 M03/M12 A3052 RMK AO2 SLP336 T10281122 TSNO $

10-Day Weather Forecast

Almanac

Astronomy

Feb. 14, 2016 Rise Set
Actual Time
Civil Twilight
Nautical Twilight
Astronomical Twilight
Moon
Length of Visible Light
Length of Day
Tomorrow will be .
, % of the Moon is Illuminated

Today's Extremes

State Highs State Lows

Community

WunderPhotos

Upload Photos

1,892,925 photos uploaded!

WunderBlog® & News

Nearby

Air Quality

  Air Quality AQ Index Pollutant
Not available.

Snow Depth

Station Depth Elevation

Earthquake Activity

City Distance Mag. Time & Date
Minimum magnitude displayed is 2.5.

Coastal Water Temperatures

Place Temperature

Stations

Nearby Weather Stations

Station Location Temp. Windchill Dew Point Humidity Wind Precip. Elev Updated Type
                   

Watches & Warnings

There are currently no watches in effect.